Time;durP1;ratioP1;P1;durP2;ratioP2;P2;SDS_P1;SDS_P2;PMS_P1;PMS_P2;Temp;Humidity;BMP_temperature;BMP_pressure;BME280_temperature;BME280_humidity;BME280_pressure;Samples;Min_cycle;Max_cycle;Signal;HPM_P1;HPM_P2
2022/06/05 20:01:27;;;;;;;7.23;6.73;;;25.20;64.30;;;;;;6022136;23;20871;-83
2022/06/05 20:04:01;;;;;;;7.47;6.30;;;25.20;64.60;;;;;;6080937;23;20500;-82
2022/06/05 20:06:49;;;;;;;7.20;6.57;;;25.20;64.90;;;;;;6067502;23;20440;-82
2022/06/05 20:09:27;;;;;;;6.90;6.40;;;25.10;65.20;;;;;;6059048;23;20428;-77
2022/06/05 20:12:18;;;;;;;5.70;5.30;;;25.10;66.00;;;;;;6068918;23;20466;-83
2022/06/05 20:14:52;;;;;;;6.83;6.40;;;25.10;65.40;;;;;;6062597;23;20781;-79
2022/06/05 20:17:30;;;;;;;6.83;6.33;;;25.00;65.70;;;;;;6072139;23;20455;-80
2022/06/05 20:20:17;;;;;;;6.67;6.20;;;25.00;66.10;;;;;;6077459;23;20471;-83
2022/06/05 20:22:55;;;;;;;6.33;5.80;;;25.00;66.40;;;;;;6107185;23;20460;-82
2022/06/05 20:25:33;;;;;;;6.70;6.23;;;24.90;66.70;;;;;;6094511;23;20479;-79
2022/06/05 20:28:54;;;;;;;;;;;;;;;;;;;;;
2022/06/05 20:31:32;;;;;;;6.50;6.10;;;24.80;67.50;;;;;;6011420;23;20516;-77
2022/06/05 20:34:47;;;;;;;6.80;6.00;;;24.80;67.50;;;;;;6100393;23;20439;-78
2022/06/05 20:37:37;;;;;;;6.73;6.23;;;24.80;68.00;;;;;;6070200;23;20438;-78
2022/06/05 20:40:13;;;;;;;6.97;6.47;;;24.70;68.10;;;;;;6121918;23;20818;-83
2022/06/05 20:42:57;;;;;;;7.40;6.80;;;24.70;68.20;;;;;;6142382;23;20454;-78
2022/06/05 20:45:30;;;;;;;6.57;5.97;;;24.60;68.60;;;;;;6131516;23;20447;-83
2022/06/05 20:48:14;;;;;;;6.30;5.87;;;24.60;69.00;;;;;;6141933;23;20443;-79
2022/06/05 20:50:51;;;;;;;7.50;6.80;;;24.60;69.10;;;;;;6134905;23;20489;-78
2022/06/05 20:53:21;;;;;;;7.33;6.73;;;24.50;69.40;;;;;;6133965;23;20446;-79
2022/06/05 20:56:01;;;;;;;7.73;7.13;;;24.50;69.70;;;;;;6107046;23;20438;-83
2022/06/05 20:58:35;;;;;;;6.83;6.13;;;24.50;70.00;;;;;;6131604;23;20459;-80
2022/06/05 21:01:07;;;;;;;7.30;6.30;;;24.40;70.00;;;;;;6138110;23;20435;-76
2022/06/05 21:09:06;;;;;;;6.70;6.30;;;24.30;70.30;;;;;;6108984;23;20426;-82
2022/06/05 21:17:15;;;;;;;6.30;5.80;;;24.20;70.80;;;;;;6129358;23;20514;-79
2022/06/05 21:19:45;;;;;;;6.57;6.07;;;24.20;70.90;;;;;;6126963;23;20930;-78
2022/06/05 21:22:15;;;;;;;7.20;6.60;;;24.20;71.20;;;;;;6126247;23;20434;-79
2022/06/05 21:24:50;;;;;;;6.30;5.80;;;24.20;71.20;;;;;;6137463;23;20434;-82
2022/06/05 21:27:25;;;;;;;7.30;6.90;;;24.10;71.30;;;;;;6142780;23;20438;-82
2022/06/05 21:29:52;;;;;;;7.77;7.27;;;24.10;71.40;;;;;;6145270;23;20465;-82
2022/06/05 21:32:41;;;;;;;5.90;5.50;;;24.10;71.50;;;;;;6130612;23;20971;-82
2022/06/05 21:35:24;;;;;;;7.67;7.07;;;24.10;71.50;;;;;;6142382;23;20441;-82
2022/06/05 21:37:59;;;;;;;7.47;6.87;;;24.00;71.70;;;;;;6143701;23;20958;-83
2022/06/05 21:40:42;;;;;;;7.93;7.13;;;24.00;71.70;;;;;;6143557;23;20442;-82
2022/06/05 21:43:14;;;;;;;7.63;6.70;;;24.00;71.80;;;;;;6147095;23;20448;-83
2022/06/05 21:45:50;;;;;;;7.57;7.07;;;24.00;71.90;;;;;;6144762;23;20906;-82
2022/06/05 21:48:18;;;;;;;6.87;6.47;;;23.90;72.00;;;;;;6142968;23;20442;-84
2022/06/05 21:50:47;;;;;;;6.83;6.33;;;23.90;72.10;;;;;;6143540;23;20430;-82
2022/06/05 21:53:19;;;;;;;6.03;5.63;;;23.90;72.20;;;;;;6129233;23;20438;-77
2022/06/05 21:55:48;;;;;;;7.23;6.53;;;23.90;72.10;;;;;;6127987;23;20433;-78
2022/06/05 21:58:17;;;;;;;6.93;6.30;;;23.90;72.10;;;;;;6128130;23;20427;-78
2022/06/05 22:00:48;;;;;;;7.90;7.27;;;23.90;72.30;;;;;;6124453;23;20434;-79
2022/06/05 22:03:17;;;;;;;6.93;6.43;;;23.80;72.20;;;;;;6127524;23;20731;-78
2022/06/05 22:05:45;;;;;;;6.67;6.10;;;23.90;72.30;;;;;;6126911;23;20442;-78
2022/06/05 22:08:15;;;;;;;6.97;6.57;;;23.80;72.20;;;;;;6126944;23;20907;-78
2022/06/05 22:10:42;;;;;;;7.37;6.87;;;23.80;72.30;;;;;;6125875;23;20434;-80
2022/06/05 22:13:10;;;;;;;7.00;6.40;;;23.80;72.30;;;;;;6127088;23;20743;-80
2022/06/05 22:15:38;;;;;;;7.63;6.93;;;23.80;72.60;;;;;;6126313;23;20465;-83
2022/06/05 22:18:05;;;;;;;7.13;6.63;;;23.80;72.60;;;;;;6129659;23;20558;-83
2022/06/05 22:20:34;;;;;;;7.60;7.00;;;23.80;72.70;;;;;;6126848;23;20493;-83
2022/06/05 22:23:04;;;;;;;7.60;7.00;;;23.70;72.70;;;;;;6128052;23;20504;-83
2022/06/05 22:25:34;;;;;;;7.57;6.53;;;23.70;72.80;;;;;;6127186;23;20538;-78
2022/06/05 22:28:01;;;;;;;7.37;6.83;;;23.70;72.80;;;;;;6126604;23;20550;-79
2022/06/05 22:30:34;;;;;;;6.63;6.17;;;23.70;72.80;;;;;;6125641;23;20438;-78
2022/06/05 22:33:01;;;;;;;7.57;6.97;;;23.60;73.80;;;;;;6127146;23;20919;-78
2022/06/05 22:35:29;;;;;;;6.60;6.10;;;23.60;73.00;;;;;;6125946;23;20438;-79
2022/06/05 22:37:56;;;;;;;7.00;6.50;;;23.60;73.00;;;;;;6126573;23;20434;-79
2022/06/05 22:40:23;;;;;;;7.43;6.93;;;23.50;73.00;;;;;;6126596;23;20438;-84
2022/06/05 22:42:55;;;;;;;7.43;6.93;;;23.50;73.20;;;;;;6127497;23;20465;-84
2022/06/05 22:45:22;;;;;;;7.10;6.50;;;23.50;73.10;;;;;;6127470;23;20759;-78
2022/06/05 22:48:03;;;;;;;6.87;6.47;;;23.50;73.00;;;;;;6124920;23;20439;-77
2022/06/05 22:50:32;;;;;;;6.37;5.97;;;23.50;73.10;;;;;;6127382;23;20434;-83
2022/06/05 22:52:59;;;;;;;7.80;7.20;;;23.50;73.10;;;;;;6112369;23;20879;-83
2022/06/05 22:55:26;;;;;;;7.80;7.30;;;23.50;73.10;;;;;;6126517;23;20438;-82
2022/06/05 22:57:57;;;;;;;7.50;7.00;;;23.40;73.10;;;;;;6126610;23;20513;-83
2022/06/05 23:00:24;;;;;;;7.50;7.07;;;23.40;73.10;;;;;;6110727;23;20434;-78
2022/06/05 23:02:52;;;;;;;7.63;7.03;;;23.50;73.20;;;;;;6125357;23;20497;-78
2022/06/05 23:05:24;;;;;;;6.70;6.20;;;23.40;73.20;;;;;;6126562;23;20442;-78
2022/06/05 23:07:54;;;;;;;6.83;6.43;;;23.40;73.10;;;;;;6125332;23;20434;-77
2022/06/05 23:10:25;;;;;;;7.33;6.73;;;23.40;73.20;;;;;;6126279;23;20434;-79
2022/06/05 23:12:52;;;;;;;6.90;6.40;;;23.40;73.20;;;;;;6126253;23;20910;-78
2022/06/05 23:15:21;;;;;;;6.57;6.17;;;23.40;73.10;;;;;;6126636;23;20519;-82
2022/06/05 23:17:59;;;;;;;7.30;6.80;;;23.30;73.20;;;;;;6126350;23;20435;-85
2022/06/05 23:20:26;;;;;;;6.73;6.20;;;23.30;73.20;;;;;;6127174;23;20434;-78
2022/06/05 23:22:53;;;;;;;7.27;6.67;;;23.30;73.30;;;;;;6126227;23;20879;-77
2022/06/05 23:25:20;;;;;;;7.50;7.00;;;23.30;73.10;;;;;;6126686;23;20439;-78
2022/06/05 23:27:48;;;;;;;6.80;6.30;;;23.30;73.30;;;;;;6125571;23;20458;-78
2022/06/05 23:30:16;;;;;;;7.23;6.63;;;23.20;73.30;;;;;;6126737;23;20471;-78
2022/06/05 23:32:47;;;;;;;6.50;5.90;;;23.30;73.40;;;;;;6124876;23;20439;-77
2022/06/05 23:35:14;;;;;;;6.07;5.73;;;23.20;73.40;;;;;;6125788;23;20441;-83
2022/06/05 23:37:41;;;;;;;7.70;7.03;;;23.20;73.40;;;;;;6125363;23;20438;-78
2022/06/05 23:40:13;;;;;;;7.70;7.10;;;23.20;73.50;;;;;;6126886;23;20445;-78
2022/06/05 23:42:40;;;;;;;6.40;6.00;;;23.20;73.50;;;;;;6125445;23;20939;-79
2022/06/05 23:45:09;;;;;;;7.00;6.50;;;23.20;73.60;;;;;;6126160;23;20430;-79
2022/06/05 23:47:36;;;;;;;6.20;5.80;;;23.10;73.60;;;;;;6125799;23;20450;-78
2022/06/05 23:50:06;;;;;;;7.03;6.43;;;23.10;73.70;;;;;;6126769;23;20506;-78
2022/06/05 23:52:34;;;;;;;7.70;7.20;;;23.10;73.70;;;;;;6125759;23;20927;-78
2022/06/05 23:55:01;;;;;;;6.97;6.57;;;23.10;73.70;;;;;;6126107;23;20445;-79
2022/06/05 23:57:31;;;;;;;7.90;7.13;;;23.20;73.80;;;;;;6126142;23;20808;-84
2022/06/05 23:59:59;;;;;;;6.93;6.37;;;23.10;73.60;;;;;;6126819;23;20874;-84
